createdAt,value
2022-09-17T00:01:31.910Z,96.08
2022-09-17T00:04:04.493Z,96.32
2022-09-17T00:06:36.476Z,96.84
2022-09-17T00:09:07.650Z,96.76
2022-09-17T00:11:37.971Z,96.92
2022-09-17T00:14:07.857Z,96.63
2022-09-17T00:16:38.422Z,96.90
2022-09-17T00:19:10.329Z,96.89
2022-09-17T00:21:38.280Z,97.09
2022-09-17T00:24:07.288Z,97.54
2022-09-17T00:26:36.164Z,97.54
2022-09-17T00:29:05.388Z,97.21
2022-09-17T00:31:34.650Z,97.83
2022-09-17T00:34:04.586Z,97.93
2022-09-17T00:36:38.905Z,97.55
2022-09-17T00:39:11.903Z,97.18
2022-09-17T00:41:39.836Z,97.68
2022-09-17T00:44:39.835Z,97.86
2022-09-17T00:47:32.536Z,97.88
2022-09-17T00:50:15.426Z,97.78
2022-09-17T00:52:54.871Z,97.51
2022-09-17T00:55:36.989Z,97.49
2022-09-17T00:58:08.327Z,97.39
2022-09-17T01:00:37.366Z,97.42
2022-09-17T01:03:05.451Z,97.53
2022-09-17T01:05:45.857Z,97.78
2022-09-17T01:08:40.877Z,97.64
2022-09-17T01:11:34.818Z,97.76
2022-09-17T01:14:24.691Z,97.73
2022-09-17T01:17:07.847Z,97.84
2022-09-17T01:20:00.375Z,98.90
2022-09-17T01:22:35.042Z,98.37
2022-09-17T01:25:25.145Z,98.52
2022-09-17T01:28:08.241Z,99.08
2022-09-17T01:31:05.191Z,99.90
2022-09-17T01:33:41.575Z,99.63
2022-09-17T01:36:46.355Z,99.67
2022-09-17T01:39:48.631Z,98.99
2022-09-17T01:42:36.043Z,98.85
2022-09-17T01:45:17.070Z,98.64
2022-09-17T01:47:50.474Z,98.41
2022-09-17T01:50:24.389Z,98.39
2022-09-17T01:52:55.780Z,99.07
2022-09-17T01:55:32.698Z,99.35
2022-09-17T01:58:07.413Z,99.76
2022-09-17T02:00:38.971Z,99.60
2022-09-17T02:03:13.367Z,99.96
2022-09-17T02:05:50.225Z,100.00
2022-09-17T02:08:26.343Z,99.94
2022-09-17T02:11:02.561Z,99.84
2022-09-17T02:13:44.253Z,100.00
2022-09-17T02:16:18.121Z,100.00
2022-09-17T02:19:16.839Z,100.00
2022-09-17T02:22:10.859Z,100.00
2022-09-17T02:25:05.615Z,100.00
2022-09-17T02:27:39.628Z,99.98
2022-09-17T02:30:08.004Z,100.00
2022-09-17T02:32:35.903Z,99.76
2022-09-17T02:35:04.699Z,99.90
2022-09-17T02:37:33.845Z,99.83
2022-09-17T02:40:02.641Z,99.73
2022-09-17T02:42:56.989Z,99.87
2022-09-17T02:45:36.779Z,99.96
2022-09-17T02:48:21.372Z,99.82
2022-09-17T02:50:57.944Z,99.82
2022-09-17T02:53:45.917Z,100.00
2022-09-17T02:56:39.979Z,99.98
2022-09-17T02:59:32.950Z,99.96
2022-09-17T03:02:13.687Z,99.90
2022-09-17T03:04:42.696Z,99.77
2022-09-17T03:07:12.229Z,99.99
2022-09-17T03:09:41.920Z,99.97
2022-09-17T03:12:11.780Z,99.95
2022-09-17T03:14:39.960Z,100.00
2022-09-17T03:17:08.047Z,99.72
2022-09-17T03:19:35.888Z,99.85
2022-09-17T03:22:03.735Z,99.86
2022-09-17T03:24:31.636Z,100.00
2022-09-17T03:26:59.565Z,99.82
2022-09-17T03:29:27.429Z,99.65
2022-09-17T03:31:55.654Z,99.99
2022-09-17T03:34:23.989Z,99.97
2022-09-17T03:36:51.925Z,100.00
2022-09-17T03:39:19.929Z,100.00
2022-09-17T03:41:47.818Z,100.00
2022-09-17T03:44:15.683Z,100.00
2022-09-17T03:46:43.655Z,100.00
2022-09-17T03:49:11.787Z,100.00
2022-09-17T03:51:39.638Z,100.00
2022-09-17T03:54:07.932Z,100.00
2022-09-17T03:56:35.772Z,100.00
2022-09-17T03:59:03.715Z,100.00
2022-09-17T04:01:31.681Z,100.00
2022-09-17T04:03:59.833Z,100.00
2022-09-17T04:06:28.166Z,100.00
2022-09-17T04:08:57.061Z,100.00
2022-09-17T04:11:25.075Z,100.00
2022-09-17T04:13:52.976Z,100.00
2022-09-17T04:16:20.961Z,100.00
2022-09-17T04:18:48.923Z,100.00
2022-09-17T04:21:16.917Z,100.00
2022-09-17T04:23:44.802Z,100.00
2022-09-17T04:26:12.840Z,100.00
2022-09-17T04:28:40.674Z,100.00
2022-09-17T04:31:08.649Z,100.00
2022-09-17T04:33:37.674Z,100.00
2022-09-17T04:36:05.600Z,100.00
2022-09-17T04:38:33.672Z,100.00
2022-09-17T04:41:01.534Z,100.00
2022-09-17T04:43:29.547Z,100.00
2022-09-17T04:45:57.606Z,100.00
2022-09-17T04:48:25.617Z,100.00
2022-09-17T04:50:55.643Z,100.00
2022-09-17T04:53:23.467Z,100.00
2022-09-17T04:55:51.456Z,100.00
2022-09-17T04:58:19.330Z,100.00
2022-09-17T05:00:47.307Z,100.00
2022-09-17T05:03:15.206Z,100.00
2022-09-17T05:05:43.046Z,100.00
2022-09-17T05:08:11.914Z,100.00
2022-09-17T05:10:39.932Z,100.00
2022-09-17T05:13:07.790Z,100.00
2022-09-17T05:15:35.656Z,100.00
2022-09-17T05:18:03.865Z,100.00
2022-09-17T05:20:31.800Z,100.00
2022-09-17T05:22:59.733Z,100.00
2022-09-17T05:25:27.626Z,100.00
2022-09-17T05:27:56.453Z,100.00
2022-09-17T05:30:24.356Z,100.00
2022-09-17T05:33:03.265Z,100.00
2022-09-17T05:35:31.971Z,100.00
2022-09-17T05:38:01.959Z,100.00
2022-09-17T05:40:31.476Z,100.00
2022-09-17T05:43:01.287Z,100.00
2022-09-17T05:45:30.715Z,100.00
2022-09-17T05:48:00.175Z,100.00
2022-09-17T05:50:30.326Z,100.00
2022-09-17T05:53:05.321Z,100.00
2022-09-17T05:55:35.331Z,100.00
2022-09-17T05:58:14.852Z,100.00
2022-09-17T06:00:43.711Z,100.00
2022-09-17T06:03:13.801Z,100.00
2022-09-17T06:05:42.362Z,100.00
2022-09-17T06:08:10.601Z,100.00
2022-09-17T06:10:39.438Z,100.00
2022-09-17T06:13:07.342Z,100.00
2022-09-17T06:15:35.406Z,100.00
2022-09-17T06:18:03.388Z,100.00
2022-09-17T06:20:31.420Z,100.00
2022-09-17T06:22:59.323Z,100.00
2022-09-17T06:25:29.606Z,100.00
2022-09-17T06:27:57.546Z,100.00
2022-09-17T06:30:25.602Z,100.00
2022-09-17T06:32:53.542Z,100.00
2022-09-17T06:35:21.392Z,100.00
2022-09-17T06:37:49.321Z,100.00
2022-09-17T06:40:17.829Z,99.98
2022-09-17T06:42:45.811Z,100.00
2022-09-17T06:45:16.685Z,100.00
2022-09-17T06:47:44.891Z,100.00
2022-09-17T06:50:12.969Z,100.00
2022-09-17T06:52:54.544Z,99.96
2022-09-17T06:55:22.545Z,99.95
2022-09-17T06:57:50.379Z,100.00
2022-09-17T07:00:18.352Z,99.81
2022-09-17T07:02:56.735Z,99.77
2022-09-17T07:05:26.469Z,99.59
2022-09-17T07:07:54.704Z,99.77
2022-09-17T07:10:27.102Z,99.70
2022-09-17T07:12:55.921Z,99.57
2022-09-17T07:15:23.814Z,99.15
2022-09-17T07:17:51.685Z,98.94
2022-09-17T07:20:20.002Z,98.64
2022-09-17T07:22:57.401Z,98.45
2022-09-17T07:25:29.235Z,98.61
2022-09-17T07:27:57.117Z,97.74
2022-09-17T07:30:25.030Z,97.55
2022-09-17T07:32:52.907Z,97.79
2022-09-17T07:35:20.818Z,97.84
2022-09-17T07:37:48.697Z,97.36
2022-09-17T07:40:16.663Z,96.85
2022-09-17T07:42:44.532Z,95.87
2022-09-17T07:45:12.359Z,95.82
2022-09-17T07:47:41.911Z,95.95
2022-09-17T07:50:10.107Z,95.94
2022-09-17T07:52:38.084Z,94.60
2022-09-17T07:55:07.646Z,94.51
2022-09-17T07:57:35.562Z,93.98
2022-09-17T08:00:04.211Z,93.38
2022-09-17T08:02:39.593Z,92.77
2022-09-17T08:05:07.940Z,93.20
2022-09-17T08:07:35.867Z,93.72
2022-09-17T08:10:03.935Z,94.19
2022-09-17T08:12:31.786Z,93.29
2022-09-17T08:14:59.622Z,92.01
2022-09-17T08:17:27.535Z,91.73
2022-09-17T08:19:55.467Z,91.75
2022-09-17T08:22:23.383Z,91.67
2022-09-17T08:24:51.234Z,91.10
2022-09-17T08:27:19.117Z,90.44
2022-09-17T08:29:47.027Z,90.50
2022-09-17T08:32:15.009Z,89.70
2022-09-17T08:34:42.811Z,90.41
2022-09-17T08:37:10.660Z,90.02
2022-09-17T08:39:38.503Z,89.86
2022-09-17T08:42:17.990Z,88.19
2022-09-17T08:44:49.873Z,88.22
2022-09-17T08:47:38.053Z,87.15
2022-09-17T08:50:18.241Z,86.40
2022-09-17T08:53:07.809Z,86.33
2022-09-17T08:55:47.452Z,85.44
2022-09-17T08:58:30.612Z,85.42
2022-09-17T09:01:10.788Z,85.66
2022-09-17T09:04:04.000Z,84.24
2022-09-17T09:06:41.594Z,84.72
2022-09-17T09:09:16.436Z,84.95
2022-09-17T09:11:47.349Z,84.65
2022-09-17T09:14:30.500Z,83.83
2022-09-17T09:17:01.753Z,82.15
2022-09-17T09:19:34.732Z,81.06
2022-09-17T09:22:13.941Z,81.05
2022-09-17T09:25:03.503Z,81.75
2022-09-17T09:27:38.956Z,82.84
2022-09-17T09:30:10.668Z,82.67
2022-09-17T09:32:47.657Z,82.33
2022-09-17T09:35:32.295Z,81.92
2022-09-17T09:38:22.899Z,80.99
2022-09-17T09:41:18.423Z,81.02
2022-09-17T09:44:12.447Z,81.66
2022-09-17T09:47:02.354Z,81.69
2022-09-17T09:49:56.219Z,80.98
2022-09-17T09:52:46.255Z,79.74
2022-09-17T09:55:50.535Z,80.48
2022-09-17T09:58:38.625Z,81.06
2022-09-17T10:01:17.238Z,80.88
2022-09-17T10:03:47.999Z,80.87
2022-09-17T10:06:17.501Z,81.17
2022-09-17T10:08:57.755Z,81.11
2022-09-17T10:11:33.431Z,80.54
2022-09-17T10:14:21.236Z,80.50
2022-09-17T10:16:49.727Z,80.81
2022-09-17T10:19:25.819Z,80.68
2022-09-17T10:22:14.343Z,80.85
2022-09-17T10:24:42.243Z,79.49
2022-09-17T10:27:19.974Z,79.11
2022-09-17T10:29:51.354Z,79.51
2022-09-17T10:32:22.241Z,79.72
2022-09-17T10:35:16.626Z,79.57
2022-09-17T10:37:47.527Z,78.79
2022-09-17T10:40:21.132Z,78.43
2022-09-17T10:42:51.705Z,77.55
2022-09-17T10:45:31.885Z,77.06
2022-09-17T10:48:00.564Z,76.96
2022-09-17T10:50:31.125Z,77.00
2022-09-17T10:53:16.999Z,77.25
2022-09-17T10:55:47.115Z,76.79
2022-09-17T10:58:26.732Z,76.12
2022-09-17T11:01:12.777Z,75.57
2022-09-17T11:04:05.050Z,75.93
2022-09-17T11:06:56.555Z,75.28
2022-09-17T11:09:27.149Z,74.94
2022-09-17T11:12:13.829Z,74.46
2022-09-17T11:14:53.446Z,74.39
2022-09-17T11:17:55.755Z,74.19
2022-09-17T11:21:04.835Z,75.03
2022-09-17T11:23:58.715Z,75.55
2022-09-17T11:27:20.372Z,75.92
2022-09-17T11:30:06.721Z,76.16
2022-09-17T11:32:52.627Z,76.99
2022-09-17T11:35:29.181Z,77.50
2022-09-17T11:38:15.086Z,78.02
2022-09-17T11:41:00.857Z,77.76
2022-09-17T11:43:35.047Z,77.96
2022-09-17T11:46:10.219Z,78.20
2022-09-17T11:48:48.993Z,78.20
2022-09-17T11:51:29.090Z,78.65
2022-09-17T11:54:06.933Z,78.88
2022-09-17T11:56:43.962Z,79.10
2022-09-17T11:59:25.523Z,78.70
2022-09-17T12:01:59.213Z,78.91
2022-09-17T12:04:32.905Z,79.41
2022-09-17T12:07:20.989Z,79.57
2022-09-17T12:10:21.642Z,79.60
2022-09-17T12:12:58.258Z,79.76
2022-09-17T12:15:31.170Z,80.09
2022-09-17T12:18:33.021Z,80.33
2022-09-17T12:21:05.208Z,80.41
2022-09-17T12:23:57.010Z,80.02
2022-09-17T12:26:49.543Z,80.22
2022-09-17T12:29:20.579Z,80.77
2022-09-17T12:32:29.644Z,80.95
2022-09-17T12:35:12.571Z,80.92
2022-09-17T12:37:58.444Z,81.05
2022-09-17T12:40:38.585Z,81.06
2022-09-17T12:43:29.299Z,81.30
2022-09-17T12:45:57.103Z,81.55
2022-09-17T12:48:41.347Z,81.77
2022-09-17T12:51:29.439Z,81.64
2022-09-17T12:54:15.138Z,81.78
2022-09-17T12:57:05.110Z,82.24
2022-09-17T12:59:36.451Z,82.46
2022-09-17T13:02:49.561Z,82.52
2022-09-17T13:05:36.132Z,82.48
2022-09-17T13:08:52.719Z,82.37
2022-09-17T13:11:39.024Z,82.59
2022-09-17T13:14:25.744Z,82.52
2022-09-17T13:17:28.178Z,82.47
2022-09-17T13:20:21.696Z,82.04
2022-09-17T13:24:09.700Z,81.85
2022-09-17T13:28:00.643Z,81.91
2022-09-17T13:32:00.986Z,81.94
2022-09-17T13:35:30.177Z,82.03
2022-09-17T13:38:23.656Z,82.25
2022-09-17T13:41:13.002Z,82.19
2022-09-17T13:43:46.825Z,82.11
2022-09-17T13:46:22.855Z,81.91
2022-09-17T13:48:57.259Z,81.55
2022-09-17T13:51:30.871Z,81.88
2022-09-17T13:54:03.537Z,82.14
2022-09-17T13:56:41.479Z,82.19
2022-09-17T13:59:27.578Z,81.97
2022-09-17T14:01:59.310Z,82.16
2022-09-17T14:04:36.140Z,82.47
2022-09-17T14:07:23.940Z,82.43
2022-09-17T14:10:02.434Z,82.44
2022-09-17T14:12:48.917Z,82.29
2022-09-17T14:15:39.992Z,82.66
2022-09-17T14:18:26.849Z,82.42
2022-09-17T14:21:07.119Z,82.59
2022-09-17T14:23:43.292Z,82.21
2022-09-17T14:26:19.737Z,81.93
2022-09-17T14:29:03.665Z,81.59
2022-09-17T14:31:35.932Z,81.76
2022-09-17T14:34:06.569Z,81.75
2022-09-17T14:36:39.413Z,81.63
2022-09-17T14:39:19.950Z,81.24
2022-09-17T14:41:51.055Z,81.13
2022-09-17T14:44:21.748Z,81.37
2022-09-17T14:47:18.441Z,80.93
2022-09-17T14:49:47.313Z,80.76
2022-09-17T14:52:24.840Z,80.92
2022-09-17T14:55:11.293Z,80.45
2022-09-17T14:57:39.227Z,80.82
2022-09-17T15:00:18.627Z,80.95
2022-09-17T15:02:52.159Z,81.12
2022-09-17T15:05:35.469Z,81.11
2022-09-17T15:08:38.681Z,81.17
2022-09-17T15:11:12.075Z,81.24
2022-09-17T15:13:43.054Z,81.51
2022-09-17T15:16:26.187Z,81.49
2022-09-17T15:19:01.262Z,81.63
2022-09-17T15:21:45.659Z,81.37
2022-09-17T15:24:50.432Z,81.31
2022-09-17T15:27:22.384Z,81.13
2022-09-17T15:29:55.543Z,81.39
2022-09-17T15:32:23.582Z,81.47
2022-09-17T15:35:17.507Z,81.37
2022-09-17T15:40:41.777Z,81.36
2022-09-17T15:43:13.621Z,81.48
2022-09-17T15:45:43.266Z,81.60
2022-09-17T15:48:34.510Z,82.09
2022-09-17T15:51:04.608Z,82.16
2022-09-17T15:53:35.053Z,82.02
2022-09-17T15:56:06.061Z,81.82
2022-09-17T15:58:46.891Z,81.74
2022-09-17T16:01:17.691Z,82.29
2022-09-17T16:03:46.823Z,82.44
2022-09-17T16:06:17.788Z,82.68
2022-09-17T16:08:50.002Z,82.65
2022-09-17T16:11:20.339Z,82.89
2022-09-17T16:13:49.475Z,83.50
2022-09-17T16:16:19.871Z,83.94
2022-09-17T16:18:48.956Z,83.83
2022-09-17T16:21:23.187Z,83.91
2022-09-17T16:23:54.058Z,84.17
2022-09-17T16:26:28.909Z,84.94
2022-09-17T16:29:02.832Z,84.78
2022-09-17T16:31:30.815Z,84.65
2022-09-17T16:33:58.804Z,84.63
2022-09-17T16:36:27.438Z,84.80
2022-09-17T16:38:55.346Z,84.96
2022-09-17T16:41:23.446Z,85.06
2022-09-17T16:43:51.336Z,85.24
2022-09-17T16:46:19.269Z,85.32
2022-09-17T16:48:50.216Z,85.73
2022-09-17T16:51:18.201Z,85.59
2022-09-17T16:53:46.257Z,85.86
2022-09-17T16:56:15.559Z,85.91
2022-09-17T16:58:43.451Z,85.95
2022-09-17T17:01:14.644Z,85.84
2022-09-17T17:03:42.888Z,86.02
2022-09-17T17:06:19.080Z,86.36
2022-09-17T17:08:47.657Z,87.16
2022-09-17T17:11:15.896Z,86.86
2022-09-17T17:13:44.195Z,87.10
2022-09-17T17:16:14.747Z,87.07
2022-09-17T17:18:44.398Z,87.14
2022-09-17T17:21:14.407Z,86.92
2022-09-17T17:23:47.392Z,87.22
2022-09-17T17:26:16.423Z,87.22
2022-09-17T17:28:44.498Z,87.51
2022-09-17T17:31:12.466Z,87.58
2022-09-17T17:33:40.430Z,87.52
2022-09-17T17:36:09.788Z,87.64
2022-09-17T17:38:38.757Z,88.31
2022-09-17T17:41:10.946Z,88.37
2022-09-17T17:43:39.472Z,89.15
2022-09-17T17:46:12.226Z,89.01
2022-09-17T17:48:40.153Z,88.63
2022-09-17T17:51:10.100Z,89.04
2022-09-17T17:53:42.748Z,88.97
2022-09-17T17:56:12.062Z,89.03
2022-09-17T17:58:40.998Z,89.12
2022-09-17T18:01:14.483Z,89.24
2022-09-17T18:03:43.205Z,89.10
2022-09-17T18:06:11.686Z,89.08
2022-09-17T18:08:41.848Z,89.24
2022-09-17T18:11:11.589Z,89.71
2022-09-17T18:13:40.279Z,89.58
2022-09-17T18:16:12.119Z,89.84
2022-09-17T18:18:44.919Z,90.11
2022-09-17T18:21:19.064Z,89.96
2022-09-17T18:23:47.799Z,90.04
2022-09-17T18:26:18.591Z,89.93
2022-09-17T18:28:47.153Z,89.92
2022-09-17T18:31:28.959Z,90.40
2022-09-17T18:34:02.792Z,90.24
2022-09-17T18:36:33.748Z,90.70
2022-09-17T18:41:53.527Z,91.02
2022-09-17T18:44:22.602Z,91.66
2022-09-17T18:46:51.566Z,91.58
2022-09-17T18:49:19.665Z,91.16
2022-09-17T18:51:47.949Z,91.50
2022-09-17T18:54:15.924Z,91.32
2022-09-17T18:56:43.866Z,91.35
2022-09-17T18:59:11.831Z,91.38
2022-09-17T19:01:39.800Z,91.55
2022-09-17T19:04:08.542Z,91.45
2022-09-17T19:06:39.194Z,91.74
2022-09-17T19:09:07.121Z,91.82
2022-09-17T19:11:36.438Z,91.72
2022-09-17T19:14:04.402Z,92.00
2022-09-17T19:16:32.665Z,91.99
2022-09-17T19:19:00.931Z,91.91
2022-09-17T19:21:28.865Z,92.24
2022-09-17T19:23:57.349Z,92.39
2022-09-17T19:26:27.476Z,92.82
2022-09-17T19:28:58.741Z,92.48
2022-09-17T19:31:28.120Z,92.47
2022-09-17T19:33:58.730Z,92.89
2022-09-17T19:36:27.463Z,93.06
2022-09-17T19:38:55.818Z,93.37
2022-09-17T19:41:23.870Z,93.52
2022-09-17T19:43:57.046Z,93.21
2022-09-17T19:46:26.748Z,94.60
2022-09-17T19:48:57.291Z,94.03
2022-09-17T19:51:28.469Z,94.16
2022-09-17T19:53:57.447Z,94.06
2022-09-17T19:56:27.518Z,94.43
2022-09-17T19:58:56.783Z,94.65
2022-09-17T20:01:25.049Z,94.59
2022-09-17T20:03:55.560Z,95.11
2022-09-17T20:06:24.205Z,95.41
2022-09-17T20:08:55.087Z,95.18
2022-09-17T20:11:25.350Z,95.13
2022-09-17T20:14:06.579Z,95.09
2022-09-17T20:16:37.392Z,95.48
2022-09-17T20:19:08.108Z,95.43
2022-09-17T20:21:36.182Z,95.62
2022-09-17T20:24:06.212Z,95.41
2022-09-17T20:26:35.112Z,95.25
2022-09-17T20:29:04.176Z,94.92
2022-09-17T20:31:32.714Z,95.33
2022-09-17T20:34:02.624Z,96.08
2022-09-17T20:36:33.607Z,95.68
2022-09-17T20:39:13.177Z,95.92
2022-09-17T20:41:44.659Z,96.41
2022-09-17T20:44:12.579Z,96.31
2022-09-17T20:46:40.663Z,96.38
2022-09-17T20:49:08.927Z,96.65
2022-09-17T20:51:36.811Z,96.45
2022-09-17T20:54:06.178Z,96.44
2022-09-17T20:56:35.372Z,96.50
2022-09-17T20:59:13.387Z,96.40
2022-09-17T21:01:45.506Z,96.29
2022-09-17T21:04:17.009Z,96.15
2022-09-17T21:06:46.226Z,95.72
2022-09-17T21:09:17.869Z,95.86
2022-09-17T21:11:47.812Z,95.68
2022-09-17T21:14:17.591Z,95.49
2022-09-17T21:16:46.074Z,95.36
2022-09-17T21:19:16.236Z,95.26
2022-09-17T21:21:44.821Z,95.45
2022-09-17T21:24:12.878Z,95.38
2022-09-17T21:26:40.919Z,95.77
2022-09-17T21:29:09.714Z,96.25
2022-09-17T21:31:38.806Z,96.21
2022-09-17T21:34:10.382Z,96.38
2022-09-17T21:36:40.835Z,96.67
2022-09-17T21:39:17.202Z,96.67
2022-09-17T21:41:46.092Z,96.58
2022-09-17T21:44:14.990Z,96.79
2022-09-17T21:46:43.388Z,96.51
2022-09-17T21:49:13.559Z,97.05
2022-09-17T21:51:42.822Z,96.85
2022-09-17T21:54:13.451Z,97.06
2022-09-17T21:56:41.679Z,97.37
2022-09-17T21:59:12.152Z,97.12
2022-09-17T22:01:44.075Z,97.87
2022-09-17T22:04:14.641Z,97.99
2022-09-17T22:06:44.001Z,98.18
2022-09-17T22:09:22.349Z,98.09
2022-09-17T22:11:51.298Z,98.26
2022-09-17T22:14:21.791Z,98.38
2022-09-17T22:16:57.012Z,98.39
2022-09-17T22:19:26.532Z,98.10
2022-09-17T22:21:56.125Z,98.46
2022-09-17T22:24:25.764Z,98.64
2022-09-17T22:26:57.925Z,98.85
2022-09-17T22:29:31.851Z,98.79
2022-09-17T22:31:59.752Z,98.48
2022-09-17T22:34:27.741Z,98.77
2022-09-17T22:36:55.629Z,99.13
2022-09-17T22:39:23.611Z,98.97
2022-09-17T22:41:51.513Z,99.40
2022-09-17T22:44:20.185Z,99.57
2022-09-17T22:46:51.347Z,98.99
2022-09-17T22:49:21.800Z,99.43
2022-09-17T22:51:49.698Z,99.35
2022-09-17T22:54:19.727Z,98.98
2022-09-17T22:56:49.234Z,98.78
2022-09-17T22:59:18.344Z,98.90
2022-09-17T23:01:46.946Z,99.04
2022-09-17T23:04:14.905Z,98.78
2022-09-17T23:06:43.244Z,99.39
2022-09-17T23:09:15.974Z,99.08
2022-09-17T23:11:43.855Z,98.95
2022-09-17T23:14:13.524Z,98.75
2022-09-17T23:16:51.113Z,99.10
2022-09-17T23:19:19.660Z,99.08
2022-09-17T23:21:47.602Z,98.89
2022-09-17T23:24:21.094Z,98.76
2022-09-17T23:27:20.915Z,98.91
2022-09-17T23:29:48.802Z,98.90
2022-09-17T23:33:35.746Z,98.85
2022-09-17T23:36:08.248Z,99.13
2022-09-17T23:38:36.259Z,99.11
2022-09-17T23:41:17.239Z,99.33
2022-09-17T23:43:48.178Z,99.29
2022-09-17T23:46:16.588Z,99.67
2022-09-17T23:48:45.325Z,99.90
2022-09-17T23:51:13.685Z,99.18
2022-09-17T23:53:41.688Z,99.11
2022-09-17T23:56:14.701Z,99.11
2022-09-17T23:58:42.554Z,99.49
